Time;durP1;ratioP1;P1;durP2;ratioP2;P2;SDS_P1;SDS_P2;PMS_P1;PMS_P2;Temp;Humidity;BMP_temperature;BMP_pressure;BME280_temperature;BME280_humidity;BME280_pressure;Samples;Min_cycle;Max_cycle;Signal;HPM_P1;HPM_P2
2022/10/20 00:00:56;;;;;;;10.18;5.38;;;8.80;99.90;;;;;;5055323;28;20055;-76
2022/10/20 00:03:22;;;;;;;8.25;5.15;;;8.80;99.90;;;;;;5062432;28;20043;-76
2022/10/20 00:05:48;;;;;;;7.88;4.82;;;8.80;99.90;;;;;;5043491;28;20578;-77
2022/10/20 00:08:14;;;;;;;10.32;5.15;;;8.80;99.90;;;;;;5042651;28;20621;-76
2022/10/20 00:10:39;;;;;;;10.10;5.10;;;8.70;99.90;;;;;;5060514;28;20488;-76
2022/10/20 00:13:05;;;;;;;9.48;5.15;;;8.60;99.90;;;;;;5063716;28;20040;-76
2022/10/20 00:15:31;;;;;;;10.75;4.70;;;8.70;99.90;;;;;;5064544;28;20045;-76
2022/10/20 00:17:56;;;;;;;8.05;4.85;;;8.70;99.90;;;;;;5059885;28;20064;-77
2022/10/20 00:20:22;;;;;;;9.05;5.22;;;8.60;99.90;;;;;;5042775;28;20911;-76
2022/10/20 00:22:48;;;;;;;12.93;4.75;;;8.60;99.90;;;;;;5062813;28;20395;-76
2022/10/20 00:25:13;;;;;;;9.43;4.70;;;8.60;99.90;;;;;;5062166;28;20056;-76
2022/10/20 00:27:39;;;;;;;8.13;4.93;;;8.60;99.90;;;;;;5064571;28;20396;-76
2022/10/20 00:30:05;;;;;;;11.82;4.95;;;8.60;99.90;;;;;;5055814;28;20048;-76
2022/10/20 00:32:31;;;;;;;13.48;5.72;;;8.60;99.90;;;;;;5058073;28;20140;-75
2022/10/20 00:34:56;;;;;;;8.07;4.75;;;8.60;99.90;;;;;;5059548;28;20183;-76
2022/10/20 00:37:22;;;;;;;7.68;4.88;;;8.60;99.90;;;;;;5044760;28;20063;-76
2022/10/20 00:39:48;;;;;;;8.10;4.95;;;8.50;99.90;;;;;;5064443;28;20399;-75
2022/10/20 00:42:16;;;;;;;8.18;5.10;;;8.60;99.90;;;;;;5064381;28;20029;-76
2022/10/20 00:44:52;;;;;;;11.00;5.53;;;8.60;99.90;;;;;;5047606;28;20049;-75
2022/10/20 00:47:48;;;;;;;9.68;5.05;;;8.60;99.90;;;;;;5067490;28;20662;-76
2022/10/20 00:50:37;;;;;;;10.68;5.28;;;8.60;99.90;;;;;;5038571;28;20052;-77
2022/10/20 00:53:03;;;;;;;10.60;4.78;;;8.50;99.90;;;;;;5067389;28;20044;-75
2022/10/20 00:55:32;;;;;;;7.70;4.95;;;8.50;99.90;;;;;;5066295;28;20055;-75
2022/10/20 00:58:00;;;;;;;9.63;4.72;;;8.60;99.90;;;;;;5051517;28;20128;-76
2022/10/20 01:00:26;;;;;;;7.15;5.18;;;8.50;99.90;;;;;;5063218;28;20037;-76
2022/10/20 01:02:54;;;;;;;8.43;5.03;;;8.50;99.90;;;;;;5062972;28;20045;-76
2022/10/20 01:05:20;;;;;;;11.73;5.40;;;8.50;99.90;;;;;;5067835;28;20070;-77
2022/10/20 01:07:46;;;;;;;11.95;5.40;;;8.50;99.90;;;;;;5065176;28;20052;-75
2022/10/20 01:10:12;;;;;;;9.27;5.45;;;8.40;99.90;;;;;;5063761;28;20032;-76
2022/10/20 01:13:12;;;;;;;8.55;5.07;;;8.40;99.90;;;;;;5065407;28;20040;-75
2022/10/20 01:15:44;;;;;;;8.80;5.05;;;8.40;99.90;;;;;;5068779;28;20445;-77
2022/10/20 01:18:30;;;;;;;8.25;5.25;;;8.40;99.90;;;;;;5066723;28;20084;-76
2022/10/20 01:21:05;;;;;;;9.32;5.22;;;8.30;99.90;;;;;;5068990;28;20040;-77
2022/10/20 01:24:02;;;;;;;9.10;5.32;;;8.30;99.90;;;;;;5061038;28;20277;-76
2022/10/20 01:26:36;;;;;;;;;;;8.30;99.90;;;;;;5047003;28;20057;-75
2022/10/20 01:29:37;;;;;;;7.97;4.80;;;8.20;99.90;;;;;;5044066;28;19932;-76
2022/10/20 01:32:07;;;;;;;10.85;5.25;;;8.20;99.90;;;;;;5055063;28;20044;-76
2022/10/20 01:35:03;;;;;;;10.82;5.57;;;8.10;99.90;;;;;;5046478;28;20049;-76
2022/10/20 01:37:36;;;;;;;10.30;5.53;;;8.20;99.90;;;;;;5067287;28;20068;-76
2022/10/20 01:40:15;;;;;;;13.82;5.55;;;8.10;99.90;;;;;;5042951;28;20533;-76
2022/10/20 01:42:44;;;;;;;10.43;5.68;;;8.20;99.90;;;;;;5049224;28;20048;-76
2022/10/20 01:45:13;;;;;;;10.30;5.88;;;8.10;99.90;;;;;;5061397;28;20052;-75
2022/10/20 01:47:40;;;;;;;11.50;5.63;;;8.10;99.90;;;;;;5067726;28;20506;-76
2022/10/20 01:50:07;;;;;;;8.40;6.00;;;8.10;99.90;;;;;;5066832;28;20784;-76
2022/10/20 01:52:33;;;;;;;9.75;5.47;;;8.10;99.90;;;;;;5047020;28;20041;-76
2022/10/20 01:54:58;;;;;;;10.82;5.50;;;8.10;99.90;;;;;;5043013;28;20095;-75
2022/10/20 01:57:39;;;;;;;9.45;5.68;;;8.00;99.90;;;;;;5068999;28;20067;-76
2022/10/20 02:00:07;;;;;;;12.10;5.85;;;8.00;99.90;;;;;;5043090;28;20048;-75
2022/10/20 02:02:42;;;;;;;;;;;8.00;99.90;;;;;;5046428;28;20057;-76
2022/10/20 02:05:44;;;;;;;9.15;5.40;;;8.00;99.90;;;;;;5047891;28;20010;-77
2022/10/20 02:08:11;;;;;;;9.63;5.55;;;8.00;99.90;;;;;;5048261;28;20141;-77
2022/10/20 02:10:44;;;;;;;10.00;5.93;;;7.90;99.90;;;;;;5042277;28;20076;-76
2022/10/20 02:13:11;;;;;;;10.52;6.55;;;8.00;99.90;;;;;;5066107;28;20037;-75
2022/10/20 02:15:43;;;;;;;13.95;5.60;;;7.90;99.90;;;;;;5064357;28;20090;-76
2022/10/20 02:18:12;;;;;;;12.93;6.43;;;7.90;99.90;;;;;;5046245;28;20143;-76
2022/10/20 02:20:42;;;;;;;12.77;6.30;;;7.90;99.90;;;;;;5066055;28;20127;-75
2022/10/20 02:23:08;;;;;;;10.95;6.55;;;7.90;99.90;;;;;;5046250;28;20084;-75
2022/10/20 02:25:36;;;;;;;11.10;6.23;;;7.80;99.90;;;;;;5064828;28;20040;-75
2022/10/20 02:28:04;;;;;;;10.02;6.35;;;7.90;99.90;;;;;;5065347;28;20094;-75
2022/10/20 02:30:30;;;;;;;11.13;6.80;;;7.80;99.90;;;;;;5063649;28;20033;-75
2022/10/20 02:32:56;;;;;;;9.63;7.05;;;7.80;99.90;;;;;;5063716;28;20045;-76
2022/10/20 02:35:27;;;;;;;11.98;6.70;;;7.90;99.90;;;;;;5062065;28;20475;-76
2022/10/20 02:37:54;;;;;;;10.48;6.78;;;7.70;99.90;;;;;;5046052;28;20372;-76
2022/10/20 02:40:21;;;;;;;11.32;7.25;;;7.70;99.90;;;;;;5061846;28;20112;-75
2022/10/20 02:42:47;;;;;;;14.60;7.57;;;7.70;99.90;;;;;;5063536;28;20072;-74
2022/10/20 02:45:12;;;;;;;12.27;7.57;;;7.70;99.90;;;;;;5060091;28;20444;-76
2022/10/20 02:47:38;;;;;;;9.38;7.05;;;7.70;99.90;;;;;;5066353;28;20075;-77
2022/10/20 02:50:05;;;;;;;10.50;6.95;;;7.70;99.90;;;;;;5066493;28;20101;-75
2022/10/20 02:52:31;;;;;;;11.35;7.53;;;7.70;99.90;;;;;;5067541;28;20043;-76
2022/10/20 02:54:56;;;;;;;11.25;7.47;;;7.70;99.90;;;;;;5043648;28;20044;-76
2022/10/20 02:57:22;;;;;;;10.60;7.72;;;7.60;99.90;;;;;;5049543;28;20058;-75
2022/10/20 02:59:48;;;;;;;10.27;7.55;;;7.70;99.90;;;;;;5066388;28;20075;-76
2022/10/20 03:02:13;;;;;;;11.98;7.97;;;7.70;99.90;;;;;;5067119;28;20132;-75
2022/10/20 03:04:39;;;;;;;11.90;7.30;;;7.80;99.90;;;;;;5044743;28;20044;-76
2022/10/20 03:07:05;;;;;;;10.90;7.97;;;7.80;99.90;;;;;;5043244;28;20040;-76
2022/10/20 03:09:31;;;;;;;13.80;7.85;;;7.80;99.90;;;;;;5045338;28;20063;-76
2022/10/20 03:11:56;;;;;;;11.40;7.90;;;7.80;99.90;;;;;;5065109;28;20040;-76
2022/10/20 03:14:22;;;;;;;10.63;8.45;;;7.80;99.90;;;;;;5031690;28;20442;-76
2022/10/20 03:16:47;;;;;;;11.18;7.82;;;7.70;99.90;;;;;;5044996;28;20045;-75
2022/10/20 03:19:13;;;;;;;19.75;8.73;;;7.70;99.90;;;;;;5044737;28;20052;-75
2022/10/20 03:21:39;;;;;;;11.70;8.55;;;7.70;99.90;;;;;;5044032;28;20397;-77
2022/10/20 03:24:04;;;;;;;11.93;9.05;;;7.70;99.90;;;;;;5045009;28;20051;-76
2022/10/20 03:26:30;;;;;;;13.23;9.35;;;7.70;99.90;;;;;;5044479;28;20106;-76
2022/10/20 03:28:56;;;;;;;13.13;10.63;;;7.70;99.90;;;;;;5041228;28;20052;-76
2022/10/20 03:31:22;;;;;;;14.75;10.75;;;7.70;99.90;;;;;;5025166;28;20503;-76
2022/10/20 03:33:47;;;;;;;14.15;10.43;;;7.70;99.90;;;;;;5041320;28;20439;-76
2022/10/20 03:36:13;;;;;;;12.77;10.20;;;7.70;99.90;;;;;;5026928;28;20057;-75
2022/10/20 03:38:42;;;;;;;13.63;10.10;;;7.70;99.90;;;;;;5044465;28;20087;-76
2022/10/20 03:41:09;;;;;;;15.95;9.90;;;7.70;99.90;;;;;;5023442;28;20147;-74
2022/10/20 03:43:34;;;;;;;16.48;11.05;;;7.60;99.90;;;;;;5040183;28;20036;-76
2022/10/20 03:46:05;;;;;;;16.40;10.45;;;7.70;99.90;;;;;;5027541;28;20101;-75
2022/10/20 03:48:31;;;;;;;14.02;11.45;;;7.60;99.90;;;;;;5028273;28;20577;-75
2022/10/20 03:50:59;;;;;;;16.83;10.77;;;7.60;99.90;;;;;;5042228;28;20057;-76
2022/10/20 03:53:24;;;;;;;13.68;11.52;;;7.60;99.90;;;;;;5026447;28;20116;-77
2022/10/20 03:55:50;;;;;;;15.30;12.05;;;7.60;99.90;;;;;;5024763;28;20454;-76
2022/10/20 03:58:16;;;;;;;18.33;12.05;;;7.60;99.90;;;;;;5028381;28;20064;-75
2022/10/20 04:00:42;;;;;;;13.43;12.00;;;7.70;99.90;;;;;;5043831;28;20759;-75
2022/10/20 04:03:07;;;;;;;15.98;12.35;;;7.70;99.90;;;;;;5022314;28;20697;-76
2022/10/20 04:05:33;;;;;;;17.83;12.23;;;7.60;99.90;;;;;;5043571;28;20045;-74
2022/10/20 04:07:59;;;;;;;14.32;11.45;;;7.60;99.90;;;;;;5027183;28;20041;-76
2022/10/20 04:10:24;;;;;;;14.20;10.80;;;7.60;99.90;;;;;;5036559;28;20041;-76
2022/10/20 04:12:50;;;;;;;19.20;12.88;;;7.70;99.90;;;;;;5042763;28;20059;-76
2022/10/20 04:15:17;;;;;;;16.95;12.23;;;7.60;99.90;;;;;;5063373;28;20052;-76
2022/10/20 04:17:43;;;;;;;14.38;12.80;;;7.60;99.90;;;;;;5044196;28;20127;-76
2022/10/20 04:20:10;;;;;;;17.48;12.80;;;7.70;99.90;;;;;;5066160;28;20061;-77
2022/10/20 04:22:36;;;;;;;17.00;13.63;;;7.70;99.90;;;;;;5066357;28;20144;-77
2022/10/20 04:25:02;;;;;;;17.23;12.65;;;7.60;99.90;;;;;;5066726;28;20083;-75
2022/10/20 04:27:28;;;;;;;17.98;12.43;;;7.60;99.90;;;;;;5048884;28;20052;-76
2022/10/20 04:29:53;;;;;;;16.17;11.73;;;7.60;99.90;;;;;;5062198;28;20040;-76
2022/10/20 04:32:19;;;;;;;18.17;13.23;;;7.60;99.90;;;;;;5065516;28;20037;-76
2022/10/20 04:34:45;;;;;;;16.77;12.82;;;7.70;99.90;;;;;;5068835;28;20086;-76
2022/10/20 04:37:11;;;;;;;16.77;12.90;;;7.60;99.90;;;;;;5046487;28;20118;-75
2022/10/20 04:39:36;;;;;;;16.45;13.07;;;7.60;99.90;;;;;;5046003;28;20045;-76
2022/10/20 04:42:02;;;;;;;18.80;12.85;;;7.60;99.90;;;;;;5069689;28;20036;-76
2022/10/20 04:44:28;;;;;;;15.13;12.32;;;7.60;99.90;;;;;;5064354;28;20037;-77
2022/10/20 04:46:54;;;;;;;15.73;12.52;;;7.60;99.90;;;;;;5065799;28;20048;-76
2022/10/20 04:49:20;;;;;;;15.93;12.35;;;7.60;99.90;;;;;;5067880;28;20048;-74
2022/10/20 04:51:46;;;;;;;15.25;12.95;;;7.60;99.90;;;;;;5051398;28;20044;-77
2022/10/20 04:54:11;;;;;;;17.48;13.90;;;7.60;99.90;;;;;;5049217;28;20044;-76
2022/10/20 04:56:37;;;;;;;17.65;13.70;;;7.60;99.90;;;;;;5070392;28;20037;-76
2022/10/20 04:59:03;;;;;;;16.95;13.52;;;7.60;99.90;;;;;;5048803;28;20045;-76
2022/10/20 05:01:29;;;;;;;15.75;13.07;;;7.60;99.90;;;;;;5048715;28;20362;-75
2022/10/20 05:03:55;;;;;;;15.20;13.60;;;7.60;99.90;;;;;;5062153;28;20132;-76
2022/10/20 05:06:23;;;;;;;16.40;14.18;;;7.60;99.90;;;;;;5068460;28;20131;-76
2022/10/20 05:08:50;;;;;;;17.40;14.43;;;7.60;99.90;;;;;;5065651;28;20040;-75
2022/10/20 05:11:18;;;;;;;18.95;13.93;;;7.60;99.90;;;;;;5068502;28;20045;-75
2022/10/20 05:13:44;;;;;;;15.43;12.98;;;7.50;99.90;;;;;;5064877;28;20049;-76
2022/10/20 05:16:10;;;;;;;15.90;14.23;;;7.60;99.90;;;;;;5063041;28;20395;-76
2022/10/20 05:18:36;;;;;;;17.35;14.40;;;7.50;99.90;;;;;;5060089;28;20051;-76
2022/10/20 05:21:11;;;;;;;18.35;14.02;;;7.60;99.90;;;;;;5067086;28;20053;-73
2022/10/20 05:23:38;;;;;;;20.63;15.20;;;7.50;99.90;;;;;;5063760;28;20094;-75
2022/10/20 05:26:06;;;;;;;18.05;14.95;;;7.60;99.90;;;;;;5068892;28;20047;-76
2022/10/20 05:28:32;;;;;;;16.88;14.57;;;7.50;99.90;;;;;;5066911;28;20037;-76
2022/10/20 05:31:05;;;;;;;18.98;15.65;;;7.50;99.90;;;;;;5059800;28;20059;-76
2022/10/20 05:33:31;;;;;;;20.65;15.15;;;7.50;99.90;;;;;;5060911;28;20036;-76
2022/10/20 05:35:57;;;;;;;18.23;14.85;;;7.50;99.90;;;;;;5047830;28;20410;-82
2022/10/20 05:38:23;;;;;;;17.85;15.00;;;7.50;99.90;;;;;;5056845;28;20059;-76
2022/10/20 05:40:49;;;;;;;17.73;14.68;;;7.50;99.90;;;;;;5065777;28;20051;-76
2022/10/20 05:43:14;;;;;;;19.92;15.60;;;7.50;99.90;;;;;;5065696;28;20090;-75
2022/10/20 05:45:40;;;;;;;19.00;15.98;;;7.40;99.90;;;;;;5063941;28;20131;-75
2022/10/20 05:48:06;;;;;;;18.38;15.18;;;7.40;99.90;;;;;;5061467;28;20040;-73
2022/10/20 05:50:32;;;;;;;20.65;15.73;;;7.40;99.90;;;;;;5066568;28;20094;-78
2022/10/20 05:52:58;;;;;;;18.98;15.90;;;7.50;99.90;;;;;;5045998;28;20407;-77
2022/10/20 05:55:24;;;;;;;19.88;14.90;;;7.40;99.90;;;;;;5049189;28;20055;-75
2022/10/20 05:57:53;;;;;;;17.70;15.63;;;7.30;99.90;;;;;;5066344;28;20403;-78
2022/10/20 06:00:29;;;;;;;22.52;18.60;;;7.40;99.90;;;;;;5062334;28;20037;-78
2022/10/20 06:02:56;;;;;;;19.30;17.40;;;7.40;99.90;;;;;;5065995;28;20582;-77
2022/10/20 06:05:31;;;;;;;25.03;18.80;;;7.40;99.90;;;;;;5047816;28;20053;-75
2022/10/20 06:07:57;;;;;;;19.58;17.40;;;7.40;99.90;;;;;;5045393;28;20048;-76
2022/10/20 06:10:23;;;;;;;23.30;17.67;;;7.30;99.90;;;;;;5045108;28;20067;-76
2022/10/20 06:12:49;;;;;;;20.63;17.05;;;7.30;99.90;;;;;;5065522;28;20075;-76
2022/10/20 06:15:15;;;;;;;22.08;16.25;;;7.30;99.90;;;;;;5025868;28;20132;-77
2022/10/20 06:17:41;;;;;;;19.77;17.63;;;7.30;99.90;;;;;;5044671;28;20123;-77
2022/10/20 06:20:07;;;;;;;19.58;16.90;;;7.30;99.90;;;;;;5028987;28;20133;-76
2022/10/20 06:22:33;;;;;;;19.38;17.27;;;7.30;99.90;;;;;;5037548;28;20076;-77
2022/10/20 06:24:58;;;;;;;20.45;16.63;;;7.30;99.90;;;;;;5043979;28;20076;-75
2022/10/20 06:27:24;;;;;;;21.63;16.67;;;7.40;99.90;;;;;;5046987;28;20035;-77
2022/10/20 06:29:51;;;;;;;23.52;16.90;;;7.40;99.90;;;;;;5021774;28;20061;-77
2022/10/20 06:32:17;;;;;;;19.65;16.27;;;7.40;99.90;;;;;;5025124;28;20041;-77
2022/10/20 06:34:43;;;;;;;20.23;15.73;;;7.40;99.90;;;;;;5025493;28;20053;-75
2022/10/20 06:37:12;;;;;;;22.35;16.70;;;7.40;99.90;;;;;;5024483;28;20049;-76
2022/10/20 06:39:38;;;;;;;20.73;18.45;;;7.40;99.90;;;;;;5026765;28;20032;-76
2022/10/20 06:42:04;;;;;;;20.20;16.90;;;7.40;99.90;;;;;;5041874;28;20041;-76
2022/10/20 06:44:30;;;;;;;21.92;16.83;;;7.50;99.90;;;;;;5042502;28;20029;-76
2022/10/20 06:46:56;;;;;;;19.77;16.55;;;7.50;99.90;;;;;;5044300;28;20057;-77
2022/10/20 06:49:22;;;;;;;19.00;16.45;;;7.50;99.90;;;;;;5046967;28;20055;-79
2022/10/20 06:51:51;;;;;;;21.13;16.33;;;7.50;99.90;;;;;;5044012;28;20079;-78
2022/10/20 06:54:17;;;;;;;20.58;16.52;;;7.50;99.90;;;;;;5041859;28;20498;-76
2022/10/20 06:56:42;;;;;;;21.08;17.30;;;7.50;99.90;;;;;;5040719;28;20056;-74
2022/10/20 06:59:08;;;;;;;19.30;17.27;;;7.50;99.90;;;;;;5040980;28;20042;-80
2022/10/20 07:01:37;;;;;;;20.15;16.60;;;7.50;99.90;;;;;;5043606;28;20056;-83
2022/10/20 07:04:06;;;;;;;22.38;16.48;;;7.50;99.90;;;;;;5050411;28;20084;-81
2022/10/20 07:06:35;;;;;;;24.52;16.17;;;7.50;99.90;;;;;;5052900;28;20547;-84
2022/10/20 07:09:03;;;;;;;19.33;16.25;;;7.50;99.90;;;;;;5049085;28;20025;-82
2022/10/20 07:11:30;;;;;;;20.75;15.88;;;7.60;99.90;;;;;;5046369;28;20076;-84
2022/10/20 07:14:00;;;;;;;20.73;18.42;;;7.60;99.90;;;;;;5036547;28;20513;-82
2022/10/20 07:16:28;;;;;;;20.83;16.65;;;7.70;99.90;;;;;;5052052;28;20052;-83
2022/10/20 07:18:54;;;;;;;18.55;15.60;;;7.70;99.90;;;;;;5064704;28;20502;-83
2022/10/20 07:21:22;;;;;;;20.02;16.33;;;7.70;99.90;;;;;;5083879;28;20042;-86
2022/10/20 07:23:49;;;;;;;19.17;15.63;;;7.80;99.90;;;;;;5053881;28;20036;-83
2022/10/20 07:26:18;;;;;;;19.97;16.37;;;7.80;99.90;;;;;;5042023;28;20155;-80
2022/10/20 07:28:55;;;;;;;19.50;15.07;;;7.80;99.90;;;;;;5062694;28;20302;-78
2022/10/20 07:31:21;;;;;;;;;;;7.80;99.90;;;;;;5063610;28;20051;-82
2022/10/20 07:33:47;;;;;;;19.38;15.18;;;7.80;99.90;;;;;;5065865;28;19920;-83
2022/10/20 07:36:19;;;;;;;18.02;15.70;;;7.80;99.90;;;;;;5066428;28;20093;-84
2022/10/20 07:38:46;;;;;;;18.13;16.42;;;7.90;99.90;;;;;;5069043;28;20049;-85
2022/10/20 07:41:12;;;;;;;20.17;15.75;;;7.90;99.90;;;;;;5063950;28;20048;-84
2022/10/20 07:43:38;;;;;;;18.65;15.40;;;8.00;99.90;;;;;;5080955;28;20082;-84
2022/10/20 07:46:05;;;;;;;18.35;16.30;;;8.00;99.90;;;;;;5055003;28;20626;-83
2022/10/20 07:48:32;;;;;;;18.88;15.15;;;8.00;99.90;;;;;;5064319;28;20049;-78
2022/10/20 07:51:17;;;;;;;18.88;15.75;;;8.10;99.90;;;;;;5064054;28;20048;-81
2022/10/20 07:53:43;;;;;;;17.35;15.15;;;8.10;99.90;;;;;;5047113;28;20471;-81
2022/10/20 07:56:09;;;;;;;20.17;16.05;;;8.20;99.90;;;;;;5068234;28;20098;-82
2022/10/20 07:58:35;;;;;;;17.23;15.23;;;8.10;99.90;;;;;;5058774;28;20059;-78
2022/10/20 08:01:00;;;;;;;17.77;15.82;;;8.10;99.90;;;;;;5030435;28;20044;-84
2022/10/20 08:03:26;;;;;;;18.38;15.60;;;8.20;99.90;;;;;;5050044;28;20467;-74
2022/10/20 08:05:51;;;;;;;17.42;15.57;;;8.30;99.90;;;;;;5035120;28;20075;-79
2022/10/20 08:08:17;;;;;;;17.27;15.50;;;8.30;99.90;;;;;;5050454;28;20028;-75
2022/10/20 08:10:43;;;;;;;19.58;15.63;;;8.30;99.90;;;;;;5058822;28;20071;-75
2022/10/20 08:13:09;;;;;;;18.27;14.65;;;8.40;99.90;;;;;;5060945;28;20044;-82
2022/10/20 08:15:35;;;;;;;17.42;15.52;;;8.40;99.90;;;;;;5063124;28;20075;-81
2022/10/20 08:18:01;;;;;;;16.10;14.40;;;8.40;99.90;;;;;;5050216;28;20128;-81
2022/10/20 08:20:26;;;;;;;17.52;15.45;;;8.50;99.90;;;;;;5065046;28;20122;-77
2022/10/20 08:22:52;;;;;;;18.38;14.50;;;8.50;99.90;;;;;;5065849;28;20044;-80
2022/10/20 08:25:18;;;;;;;16.55;14.82;;;8.50;99.90;;;;;;5067353;28;20044;-77
2022/10/20 08:27:43;;;;;;;16.80;14.93;;;8.50;99.90;;;;;;5067217;28;20044;-77
2022/10/20 08:30:09;;;;;;;16.33;14.60;;;8.60;99.90;;;;;;5047179;28;20435;-78
2022/10/20 08:32:35;;;;;;;17.23;15.00;;;8.60;99.90;;;;;;5065343;28;20093;-77
2022/10/20 08:35:01;;;;;;;16.75;14.77;;;8.60;99.90;;;;;;5066219;28;20528;-78
2022/10/20 08:37:29;;;;;;;15.65;14.05;;;8.70;99.90;;;;;;5045572;28;20032;-81
2022/10/20 08:39:55;;;;;;;16.73;14.63;;;8.80;99.90;;;;;;5048917;28;20051;-80
2022/10/20 08:42:21;;;;;;;18.75;14.27;;;8.80;99.90;;;;;;5046865;28;20044;-79
2022/10/20 08:44:48;;;;;;;15.13;13.63;;;8.90;99.90;;;;;;5066264;28;20779;-78
2022/10/20 08:47:28;;;;;;;15.30;13.60;;;8.90;99.90;;;;;;5067424;28;20127;-78
2022/10/20 08:49:55;;;;;;;17.60;14.20;;;9.00;99.90;;;;;;5062856;28;20328;-79
2022/10/20 08:52:23;;;;;;;16.23;14.52;;;9.00;99.90;;;;;;5066334;28;20093;-78
2022/10/20 08:54:55;;;;;;;15.52;13.50;;;9.10;99.90;;;;;;5058477;28;20274;-81
2022/10/20 08:57:30;;;;;;;15.45;13.23;;;9.20;99.90;;;;;;5054728;28;20041;-79
2022/10/20 09:00:18;;;;;;;15.23;13.63;;;9.30;99.90;;;;;;5058768;28;20398;-80
2022/10/20 09:02:45;;;;;;;14.45;12.82;;;9.30;99.90;;;;;;5057648;28;20041;-75
2022/10/20 09:05:12;;;;;;;;;;;9.40;99.90;;;;;;5065734;28;20063;-77
2022/10/20 09:07:38;;;;;;;14.30;12.73;;;9.40;99.90;;;;;;5059250;28;19920;-77
2022/10/20 09:10:16;;;;;;;16.08;12.95;;;9.50;99.90;;;;;;5047410;28;20538;-77
2022/10/20 09:12:44;;;;;;;16.17;12.43;;;9.60;99.90;;;;;;5052299;28;20091;-77
2022/10/20 09:15:11;;;;;;;14.02;11.60;;;9.60;99.90;;;;;;5053360;28;20044;-76
2022/10/20 09:17:50;;;;;;;13.40;12.05;;;9.70;99.90;;;;;;5057978;28;20376;-78
2022/10/20 09:20:23;;;;;;;15.15;11.85;;;9.70;99.90;;;;;;5033286;28;20075;-76
2022/10/20 09:22:48;;;;;;;14.10;12.60;;;9.80;99.90;;;;;;5062578;28;20438;-76
2022/10/20 09:25:22;;;;;;;13.30;11.88;;;9.80;99.90;;;;;;5065925;28;20114;-76
2022/10/20 09:27:49;;;;;;;14.30;12.80;;;9.80;99.90;;;;;;5041755;28;20064;-76
2022/10/20 09:30:21;;;;;;;14.65;11.93;;;9.90;99.90;;;;;;5050113;28;20581;-76
2022/10/20 09:32:48;;;;;;;14.07;11.50;;;10.00;99.90;;;;;;5047912;28;20036;-76
2022/10/20 09:35:30;;;;;;;14.77;11.30;;;10.00;99.90;;;;;;5050280;28;20052;-76
2022/10/20 09:38:04;;;;;;;14.25;10.68;;;10.10;99.90;;;;;;5043771;28;20051;-79
2022/10/20 09:40:30;;;;;;;12.15;10.77;;;10.20;99.90;;;;;;5066523;28;20103;-76
2022/10/20 09:43:06;;;;;;;12.25;10.30;;;10.20;99.90;;;;;;5045242;28;20048;-84
2022/10/20 09:45:34;;;;;;;12.30;10.55;;;10.30;99.90;;;;;;5046523;28;20483;-75
2022/10/20 09:48:05;;;;;;;;;;;10.40;99.90;;;;;;5050955;28;20049;-76
2022/10/20 09:50:39;;;;;;;13.27;11.48;;;10.40;99.90;;;;;;5050514;28;19920;-77
2022/10/20 09:53:15;;;;;;;13.23;10.57;;;10.50;99.90;;;;;;5047972;28;20395;-76
2022/10/20 09:55:46;;;;;;;18.63;11.83;;;10.50;99.90;;;;;;5048432;28;20051;-81
2022/10/20 09:58:29;;;;;;;13.68;10.70;;;10.60;99.90;;;;;;5055837;28;20307;-79
2022/10/20 10:01:03;;;;;;;12.93;10.88;;;10.70;99.90;;;;;;5046564;28;20052;-78
2022/10/20 10:03:36;;;;;;;13.07;10.60;;;10.70;99.90;;;;;;5066031;28;20365;-78
2022/10/20 10:06:25;;;;;;;11.60;9.65;;;10.80;99.90;;;;;;5068196;28;20059;-78
2022/10/20 10:08:51;;;;;;;12.25;10.80;;;10.80;99.90;;;;;;5063845;28;20050;-78
2022/10/20 10:11:20;;;;;;;14.05;10.93;;;10.90;99.90;;;;;;5049598;28;20391;-79
2022/10/20 10:13:48;;;;;;;13.82;10.02;;;10.90;99.90;;;;;;5054564;28;107163;-78
2022/10/20 10:16:18;;;;;;;12.23;10.20;;;10.90;99.90;;;;;;5035168;28;20126;-78
2022/10/20 10:18:59;;;;;;;12.18;9.80;;;11.00;99.90;;;;;;5063957;28;20082;-78
2022/10/20 10:21:25;;;;;;;11.70;10.20;;;11.10;99.90;;;;;;5066672;28;20060;-78
2022/10/20 10:23:57;;;;;;;12.18;10.00;;;11.10;99.90;;;;;;5068858;28;20389;-78
2022/10/20 10:26:45;;;;;;;11.35;10.23;;;11.20;99.90;;;;;;5045614;28;20052;-79
2022/10/20 10:29:15;;;;;;;;;;;11.30;99.90;;;;;;5061926;28;20045;-78
2022/10/20 10:31:51;;;;;;;14.85;10.13;;;11.30;99.90;;;;;;5067630;28;19922;-80
2022/10/20 10:34:16;;;;;;;10.93;9.57;;;11.50;99.90;;;;;;5068577;28;20075;-77
2022/10/20 10:36:42;;;;;;;12.70;10.07;;;11.60;99.90;;;;;;5065768;28;20747;-76
2022/10/20 10:39:14;;;;;;;12.20;10.38;;;11.70;99.90;;;;;;5067041;28;20475;-82
2022/10/20 10:42:03;;;;;;;14.25;9.63;;;11.80;99.90;;;;;;5065830;28;20130;-80
2022/10/20 10:44:40;;;;;;;12.98;9.68;;;11.90;99.90;;;;;;5053159;28;20063;-74
2022/10/20 10:47:24;;;;;;;10.02;8.90;;;12.00;99.90;;;;;;5046161;28;20054;-81
2022/10/20 10:50:15;;;;;;;10.88;9.60;;;12.10;99.90;;;;;;5068360;28;20102;-83
2022/10/20 10:52:56;;;;;;;12.57;9.55;;;12.20;99.90;;;;;;5062790;28;20075;-74
2022/10/20 10:55:28;;;;;;;10.55;9.35;;;12.30;99.90;;;;;;5063862;28;20094;-83
2022/10/20 10:58:20;;;;;;;12.15;9.95;;;12.30;99.90;;;;;;5044854;28;20123;-81
2022/10/20 11:01:03;;;;;;;13.75;10.10;;;12.20;99.90;;;;;;5046126;28;20163;-86
2022/10/20 11:03:53;;;;;;;11.80;10.23;;;12.20;99.90;;;;;;5068848;28;20115;-84
2022/10/20 11:06:44;;;;;;;13.07;10.73;;;12.20;99.90;;;;;;5067873;28;20066;-83
2022/10/20 11:09:40;;;;;;;13.25;10.50;;;12.30;99.90;;;;;;5064033;28;20036;-84
2022/10/20 11:12:15;;;;;;;11.90;10.70;;;12.40;99.90;;;;;;5061617;28;20044;-81
2022/10/20 11:15:01;;;;;;;11.73;10.52;;;12.40;99.90;;;;;;5066240;28;20056;-81
2022/10/20 11:17:54;;;;;;;12.98;10.27;;;12.60;99.90;;;;;;5072299;28;20068;-81
2022/10/20 11:20:49;;;;;;;12.55;10.55;;;12.70;99.90;;;;;;5058309;28;20049;-82
2022/10/20 11:23:36;;;;;;;12.07;9.85;;;12.70;99.90;;;;;;5065783;28;20052;-81
2022/10/20 11:26:12;;;;;;;12.68;10.35;;;12.80;99.90;;;;;;5044959;28;20139;-83
2022/10/20 11:28:44;;;;;;;13.67;11.07;;;12.80;99.90;;;;;;5067100;28;20028;-81
2022/10/20 11:31:35;;;;;;;12.85;10.88;;;12.80;99.90;;;;;;5065795;28;20116;-81
2022/10/20 11:34:29;;;;;;;12.52;11.23;;;12.80;99.90;;;;;;5068395;28;20040;-80
2022/10/20 11:37:05;;;;;;;11.85;10.65;;;12.80;99.90;;;;;;5066918;28;20048;-81
2022/10/20 11:39:40;;;;;;;13.20;11.27;;;12.80;99.90;;;;;;5043328;28;20051;-81
2022/10/20 11:42:31;;;;;;;15.55;11.65;;;12.90;99.90;;;;;;5063727;28;20525;-81
2022/10/20 11:45:00;;;;;;;12.10;10.90;;;12.80;99.90;;;;;;5047957;28;20057;-78
2022/10/20 11:47:39;;;;;;;11.98;10.70;;;12.80;99.90;;;;;;5070444;28;20075;-78
2022/10/20 11:50:08;;;;;;;12.50;11.23;;;12.90;99.90;;;;;;5052894;28;20079;-78
2022/10/20 11:52:43;;;;;;;15.55;11.25;;;12.90;99.90;;;;;;5068523;28;20062;-79
2022/10/20 11:55:21;;;;;;;14.52;10.93;;;12.90;99.90;;;;;;5071984;28;20075;-79
2022/10/20 11:58:02;;;;;;;12.65;11.45;;;12.90;99.90;;;;;;5066985;28;20032;-78
2022/10/20 12:00:46;;;;;;;13.43;11.25;;;12.90;99.90;;;;;;5051452;28;20048;-79
2022/10/20 12:03:40;;;;;;;14.25;12.75;;;12.90;99.90;;;;;;5068585;28;20079;-79
2022/10/20 12:06:42;;;;;;;13.50;12.02;;;12.90;99.90;;;;;;5048001;28;20053;-79
2022/10/20 12:09:31;;;;;;;12.70;11.38;;;12.90;99.90;;;;;;5066470;28;20475;-80
2022/10/20 12:12:02;;;;;;;14.45;12.30;;;12.80;99.90;;;;;;5067207;28;20043;-79
2022/10/20 12:14:41;;;;;;;14.20;12.68;;;12.90;99.90;;;;;;5061708;28;20080;-80
2022/10/20 12:17:33;;;;;;;13.70;12.13;;;12.80;99.90;;;;;;5066399;28;20666;-80
2022/10/20 12:20:20;;;;;;;13.88;12.25;;;12.70;99.90;;;;;;5065132;28;20048;-79
2022/10/20 12:22:54;;;;;;;14.85;12.27;;;12.70;99.90;;;;;;5042474;28;20040;-80
2022/10/20 12:25:26;;;;;;;17.50;13.00;;;12.70;99.90;;;;;;5043132;28;20044;-79
2022/10/20 12:28:20;;;;;;;14.10;12.55;;;12.70;99.90;;;;;;5063600;28;20133;-79
2022/10/20 12:30:56;;;;;;;14.60;13.05;;;12.60;99.90;;;;;;5048209;28;20045;-79
2022/10/20 12:33:58;;;;;;;14.07;12.65;;;12.60;99.90;;;;;;5064243;28;20087;-79
2022/10/20 12:36:38;;;;;;;17.17;13.20;;;12.60;99.90;;;;;;5039913;28;20127;-81
2022/10/20 12:39:12;;;;;;;17.05;13.75;;;12.60;99.90;;;;;;5062437;28;20049;-78
2022/10/20 12:41:43;;;;;;;19.15;14.93;;;12.60;99.90;;;;;;5062667;28;20045;-81
2022/10/20 12:44:17;;;;;;;17.20;14.77;;;12.60;99.90;;;;;;5067017;28;20067;-81
2022/10/20 12:46:53;;;;;;;17.95;14.70;;;12.60;99.90;;;;;;5063568;28;20123;-80
2022/10/20 12:49:33;;;;;;;17.23;14.95;;;12.50;99.90;;;;;;5051779;28;20033;-79
2022/10/20 12:52:01;;;;;;;17.30;15.50;;;12.50;99.90;;;;;;5064222;28;20487;-81
2022/10/20 12:54:38;;;;;;;16.42;14.65;;;12.50;99.90;;;;;;5064256;28;20703;-74
2022/10/20 12:57:43;;;;;;;18.73;15.80;;;12.50;99.90;;;;;;5052551;28;20036;-75
2022/10/20 13:00:18;;;;;;;16.33;14.75;;;12.50;99.90;;;;;;5070504;28;20047;-78